Terminal Aerodrome Forecast
Issued by NWS

Home | Current Version | Previous Version | Text Only | Print | Product List | Glossary On
Versions: 1 2 3 4 5 6 7 8 9 10 11 12 13 14 15 16 17 18 19 20 21 22 23 24 25
000
FTUS43 KGRB 290500
TAFAUW
TAF
KAUW 290534Z 2906/3006 31006KT P6SM SCT100
     FM291000 34006KT P6SM FEW025 BKN100
     FM291300 34006KT P6SM FEW025 BKN100=

USA.gov is the U.S. government's official web portal to all federal, state and local government web resources and services.